createdAt,value
2019-05-18T00:01:42.199Z,4.30
2019-05-18T00:04:11.291Z,3.20
2019-05-18T00:06:40.369Z,3.57
2019-05-18T00:09:09.376Z,3.73
2019-05-18T00:11:38.476Z,3.30
2019-05-18T00:14:07.562Z,2.90
2019-05-18T00:16:36.646Z,3.90
2019-05-18T00:19:05.681Z,3.97
2019-05-18T00:21:34.748Z,3.77
2019-05-18T00:24:03.744Z,3.50
2019-05-18T00:26:32.748Z,4.33
2019-05-18T00:29:02.425Z,3.20
2019-05-18T00:31:31.350Z,4.20
2019-05-18T00:34:00.237Z,3.60
2019-05-18T00:36:29.632Z,3.90
2019-05-18T00:38:58.624Z,3.53
2019-05-18T00:41:27.678Z,3.63
2019-05-18T00:43:56.674Z,3.80
2019-05-18T00:46:25.692Z,3.90
2019-05-18T00:48:55.198Z,4.43
2019-05-18T00:51:24.214Z,3.47
2019-05-18T00:53:53.390Z,3.67
2019-05-18T00:56:22.415Z,3.60
2019-05-18T00:58:51.500Z,4.03
2019-05-18T01:01:20.496Z,3.53
2019-05-18T01:03:49.797Z,3.57
2019-05-18T01:06:18.756Z,3.50
2019-05-18T01:08:47.752Z,3.80
2019-05-18T01:11:16.622Z,3.40
2019-05-18T01:13:45.833Z,3.80
2019-05-18T01:16:14.750Z,3.00
2019-05-18T01:18:43.810Z,3.37
2019-05-18T01:21:12.921Z,3.30
2019-05-18T01:23:41.946Z,4.23
2019-05-18T01:26:11.017Z,3.70
2019-05-18T01:28:39.930Z,3.83
2019-05-18T01:31:08.938Z,4.10
2019-05-18T01:33:37.930Z,4.13
2019-05-18T01:36:06.971Z,3.90
2019-05-18T01:38:35.983Z,4.17
2019-05-18T01:41:05.073Z,4.80
2019-05-18T01:43:34.048Z,4.60
2019-05-18T01:46:03.453Z,3.63
2019-05-18T01:48:32.611Z,3.80
2019-05-18T01:51:01.525Z,3.87
2019-05-18T01:53:30.537Z,4.60
2019-05-18T01:55:59.543Z,3.83
2019-05-18T01:58:28.710Z,4.77
2019-05-18T02:00:57.727Z,4.00
2019-05-18T02:03:26.893Z,3.50
2019-05-18T02:05:55.882Z,3.83
2019-05-18T02:08:24.869Z,3.83
2019-05-18T02:10:54.017Z,3.50
2019-05-18T02:13:22.912Z,3.90
2019-05-18T02:15:51.843Z,3.90
2019-05-18T02:18:28.725Z,4.20
2019-05-18T02:20:51.597Z,4.10
2019-05-18T02:23:20.532Z,4.60
2019-05-18T02:25:49.545Z,3.40
2019-05-18T02:28:18.456Z,4.00
2019-05-18T02:30:47.460Z,4.27
2019-05-18T02:33:16.402Z,3.67
2019-05-18T02:35:45.317Z,4.30
2019-05-18T02:38:15.360Z,3.97
2019-05-18T02:40:44.661Z,3.93
2019-05-18T02:43:14.079Z,3.93
2019-05-18T02:45:43.387Z,4.00
2019-05-18T02:48:12.389Z,3.33
2019-05-18T02:50:41.498Z,3.93
2019-05-18T02:53:10.554Z,4.30
2019-05-18T02:55:39.575Z,4.60
2019-05-18T02:58:08.566Z,4.43
2019-05-18T03:00:37.566Z,4.43
2019-05-18T03:03:06.570Z,3.47
2019-05-18T03:05:35.562Z,3.97
2019-05-18T03:08:04.543Z,3.80
2019-05-18T03:10:33.559Z,3.67
2019-05-18T03:13:02.563Z,3.70
2019-05-18T03:15:31.798Z,4.03
2019-05-18T03:18:00.848Z,4.10
2019-05-18T03:20:29.858Z,3.40
2019-05-18T03:22:59.188Z,3.67
2019-05-18T03:25:28.205Z,4.90
2019-05-18T03:27:57.189Z,4.10
2019-05-18T03:30:26.186Z,3.70
2019-05-18T03:32:55.273Z,4.33
2019-05-18T03:35:24.738Z,4.00
2019-05-18T03:37:53.726Z,4.37
2019-05-18T03:40:22.748Z,4.47
2019-05-18T03:42:51.911Z,3.87
2019-05-18T03:45:20.826Z,4.50
2019-05-18T03:47:49.836Z,4.47
2019-05-18T03:50:18.826Z,4.20
2019-05-18T03:52:47.881Z,3.73
2019-05-18T03:55:16.890Z,3.70
2019-05-18T03:57:45.905Z,4.33
2019-05-18T04:00:15.301Z,4.53
2019-05-18T04:02:44.309Z,3.77
2019-05-18T04:05:13.299Z,3.97
2019-05-18T04:07:42.336Z,4.83
2019-05-18T04:10:11.519Z,4.80
2019-05-18T04:12:40.355Z,3.93
2019-05-18T04:15:10.841Z,5.27
2019-05-18T04:17:39.816Z,10.10
2019-05-18T04:20:09.556Z,5.57
2019-05-18T04:22:38.596Z,4.80
2019-05-18T04:25:07.643Z,7.80
2019-05-18T04:27:36.570Z,7.17
2019-05-18T04:30:05.979Z,5.40
2019-05-18T04:32:34.998Z,5.70
2019-05-18T04:35:04.170Z,4.93
2019-05-18T04:37:33.176Z,5.83
2019-05-18T04:40:02.089Z,5.20
2019-05-18T04:42:31.008Z,4.63
2019-05-18T04:44:59.934Z,4.37
2019-05-18T04:47:28.942Z,5.20
2019-05-18T04:50:05.286Z,5.50
2019-05-18T04:52:28.654Z,4.83
2019-05-18T04:54:57.545Z,4.77
2019-05-18T04:57:26.468Z,5.70
2019-05-18T04:59:55.517Z,5.07
2019-05-18T05:02:24.571Z,5.87
2019-05-18T05:04:56.587Z,5.47
2019-05-18T05:07:24.237Z,5.27
2019-05-18T05:09:53.237Z,5.23
2019-05-18T05:12:22.078Z,5.50
2019-05-18T05:14:51.013Z,5.40
2019-05-18T05:17:20.119Z,6.17
2019-05-18T05:19:48.996Z,6.80
2019-05-18T05:22:18.117Z,5.53
2019-05-18T05:24:47.093Z,5.50
2019-05-18T05:27:15.937Z,5.43
2019-05-18T05:29:44.862Z,5.47
2019-05-18T05:32:13.917Z,5.20
2019-05-18T05:34:42.853Z,5.77
2019-05-18T05:37:11.758Z,6.50
2019-05-18T05:39:40.746Z,7.77
2019-05-18T05:42:09.675Z,5.90
2019-05-18T05:44:38.881Z,6.77
2019-05-18T05:47:07.877Z,6.47
2019-05-18T05:49:36.809Z,5.50
2019-05-18T05:52:05.829Z,5.90
2019-05-18T05:54:36.497Z,4.90
2019-05-18T05:57:05.637Z,5.43
2019-05-18T05:59:34.557Z,5.90
2019-05-18T06:02:03.693Z,5.20
2019-05-18T06:04:32.692Z,5.40
2019-05-18T06:07:01.643Z,5.00
2019-05-18T06:09:30.619Z,4.97
2019-05-18T06:11:59.482Z,4.47
2019-05-18T06:14:28.479Z,4.00
2019-05-18T06:16:57.488Z,3.47
2019-05-18T06:19:26.337Z,3.83
2019-05-18T06:21:55.755Z,3.60
2019-05-18T06:24:24.771Z,3.67
2019-05-18T06:26:53.719Z,3.63
2019-05-18T06:29:22.629Z,3.30
2019-05-18T06:31:51.581Z,3.03
2019-05-18T06:34:20.577Z,3.70
2019-05-18T06:36:49.497Z,3.43
2019-05-18T06:39:18.532Z,3.73
2019-05-18T06:41:47.450Z,3.90
2019-05-18T06:44:16.365Z,3.17
2019-05-18T06:46:45.296Z,4.47
2019-05-18T06:49:14.285Z,3.17
2019-05-18T06:51:43.278Z,3.73
2019-05-18T06:54:12.371Z,3.13
2019-05-18T06:56:42.271Z,3.00
2019-05-18T06:59:12.187Z,3.60
2019-05-18T07:01:41.134Z,4.20
2019-05-18T07:04:10.127Z,3.27
2019-05-18T07:06:39.089Z,3.30
2019-05-18T07:09:13.799Z,3.40
2019-05-18T07:11:39.707Z,3.57
2019-05-18T07:14:08.619Z,3.77
2019-05-18T07:16:37.637Z,3.80
2019-05-18T07:19:15.979Z,3.37
2019-05-18T07:21:53.427Z,4.37
2019-05-18T07:24:22.842Z,3.40
2019-05-18T07:26:55.007Z,3.57
2019-05-18T07:29:24.255Z,3.37
2019-05-18T07:31:53.246Z,3.60
2019-05-18T07:34:26.659Z,3.37
2019-05-18T07:37:00.066Z,3.20
2019-05-18T07:39:38.411Z,3.17
2019-05-18T07:42:07.821Z,3.13
2019-05-18T07:44:52.374Z,3.10
2019-05-18T07:47:38.256Z,2.83
2019-05-18T07:50:08.374Z,2.83
2019-05-18T07:52:40.085Z,2.90
2019-05-18T07:55:16.420Z,3.90
2019-05-18T07:57:51.529Z,2.70
2019-05-18T08:00:23.974Z,3.70
2019-05-18T08:02:53.157Z,3.33
2019-05-18T08:05:22.187Z,4.37
2019-05-18T08:07:51.361Z,3.10
2019-05-18T08:10:43.600Z,3.33
2019-05-18T08:13:12.170Z,3.90
2019-05-18T08:15:41.165Z,3.90
2019-05-18T08:18:10.188Z,3.60
2019-05-18T08:20:39.241Z,3.20
2019-05-18T08:23:08.246Z,3.30
2019-05-18T08:25:37.709Z,3.50
2019-05-18T08:28:06.733Z,2.97
2019-05-18T08:30:35.730Z,2.97
2019-05-18T08:33:04.814Z,3.10
2019-05-18T08:35:33.837Z,3.00
2019-05-18T08:38:02.875Z,3.23
2019-05-18T08:40:31.918Z,3.37
2019-05-18T08:43:00.958Z,3.43
2019-05-18T08:45:30.061Z,2.83
2019-05-18T08:47:59.069Z,2.80
2019-05-18T08:50:28.007Z,3.20
2019-05-18T08:52:57.186Z,4.10
2019-05-18T08:55:26.217Z,3.53
2019-05-18T08:57:55.271Z,2.70
2019-05-18T09:00:24.282Z,2.93
2019-05-18T09:02:53.242Z,4.33
2019-05-18T09:05:22.252Z,3.77
2019-05-18T09:07:51.287Z,4.10
2019-05-18T09:10:20.645Z,3.90
2019-05-18T09:12:49.738Z,3.93
2019-05-18T09:15:18.946Z,3.43
2019-05-18T09:17:47.997Z,3.23
2019-05-18T09:20:17.789Z,2.83
2019-05-18T09:22:46.713Z,2.83
2019-05-18T09:25:16.682Z,2.63
2019-05-18T09:27:45.685Z,2.60
2019-05-18T09:30:15.171Z,3.00
2019-05-18T09:32:44.249Z,3.00
2019-05-18T09:35:13.513Z,2.90
2019-05-18T09:37:42.443Z,2.20
2019-05-18T09:40:11.701Z,2.77
2019-05-18T09:42:40.717Z,3.10
2019-05-18T09:45:10.435Z,2.50
2019-05-18T09:47:39.598Z,3.80
2019-05-18T09:50:09.188Z,3.00
2019-05-18T09:52:46.340Z,3.33
2019-05-18T09:55:09.136Z,2.90
2019-05-18T09:57:38.141Z,5.67
2019-05-18T10:00:07.854Z,7.90
2019-05-18T10:02:38.589Z,3.03
2019-05-18T10:05:07.605Z,2.93
2019-05-18T10:07:36.732Z,2.53
2019-05-18T10:10:06.468Z,2.70
2019-05-18T10:12:35.482Z,4.63
2019-05-18T10:15:04.877Z,3.13
2019-05-18T10:17:33.968Z,3.00
2019-05-18T10:20:03.258Z,3.10
2019-05-18T10:22:32.278Z,2.77
2019-05-18T10:25:01.798Z,2.87
2019-05-18T10:27:30.793Z,3.00
2019-05-18T10:30:00.251Z,2.63
2019-05-18T10:32:29.282Z,3.23
2019-05-18T10:34:58.289Z,3.00
2019-05-18T10:37:27.221Z,3.23
2019-05-18T10:39:56.507Z,3.50
2019-05-18T10:42:25.520Z,7.93
2019-05-18T10:44:54.539Z,2.57
2019-05-18T10:47:23.663Z,3.00
2019-05-18T10:49:52.866Z,2.90
2019-05-18T10:52:21.822Z,3.13
2019-05-18T10:54:50.844Z,3.10
2019-05-18T10:57:19.865Z,3.80
2019-05-18T10:59:48.877Z,3.83
2019-05-18T11:02:17.890Z,4.13
2019-05-18T11:04:46.894Z,3.73
2019-05-18T11:07:15.992Z,3.17
2019-05-18T11:09:44.947Z,3.70
2019-05-18T11:12:13.895Z,3.77
2019-05-18T11:14:42.892Z,3.30
2019-05-18T11:17:11.894Z,3.47
2019-05-18T11:19:41.009Z,3.30
2019-05-18T11:22:10.021Z,3.33
2019-05-18T11:24:39.150Z,4.20
2019-05-18T11:27:08.563Z,3.70
2019-05-18T11:29:37.605Z,3.97
2019-05-18T11:32:06.652Z,3.97
2019-05-18T11:34:35.611Z,4.50
2019-05-18T11:37:04.633Z,3.87
2019-05-18T11:39:33.678Z,3.90
2019-05-18T11:42:02.708Z,5.33
2019-05-18T11:44:31.715Z,4.77
2019-05-18T11:47:01.008Z,3.83
2019-05-18T11:49:30.305Z,3.73
2019-05-18T11:51:59.369Z,4.00
2019-05-18T11:54:28.424Z,3.93
2019-05-18T11:56:57.491Z,7.10
2019-05-18T11:59:26.744Z,4.70
2019-05-18T12:01:55.695Z,3.80
2019-05-18T12:04:24.739Z,3.23
2019-05-18T12:06:53.761Z,3.37
2019-05-18T12:09:23.796Z,3.87
2019-05-18T12:11:52.877Z,3.77
2019-05-18T12:14:21.911Z,3.90
2019-05-18T12:16:50.955Z,4.13
2019-05-18T12:19:19.990Z,3.37
2019-05-18T12:21:48.991Z,3.70
2019-05-18T12:24:18.073Z,3.97
2019-05-18T12:26:47.052Z,3.50
2019-05-18T12:29:16.093Z,2.83
2019-05-18T12:31:45.262Z,4.40
2019-05-18T12:34:14.137Z,3.67
2019-05-18T12:36:43.401Z,4.23
2019-05-18T12:39:12.442Z,3.87
2019-05-18T12:41:41.468Z,3.77
2019-05-18T12:44:10.492Z,3.10
2019-05-18T12:46:39.536Z,3.40
2019-05-18T12:49:08.521Z,3.87
2019-05-18T12:51:37.559Z,3.63
2019-05-18T12:54:06.727Z,3.10
2019-05-18T12:56:36.330Z,3.93
2019-05-18T12:59:05.346Z,3.60
2019-05-18T13:01:34.360Z,2.83
2019-05-18T13:04:05.089Z,3.10
2019-05-18T13:06:34.157Z,3.17
2019-05-18T13:09:04.059Z,3.10
2019-05-18T13:11:33.049Z,3.20
2019-05-18T13:14:02.264Z,3.63
2019-05-18T13:16:31.302Z,3.60
2019-05-18T13:19:00.369Z,3.37
2019-05-18T13:21:29.363Z,3.43
2019-05-18T13:23:58.616Z,3.07
2019-05-18T13:26:27.710Z,3.50
2019-05-18T13:28:56.982Z,3.30
2019-05-18T13:31:34.454Z,3.30
2019-05-18T13:34:03.485Z,3.07
2019-05-18T13:36:32.518Z,3.07
2019-05-18T13:39:01.659Z,3.63
2019-05-18T13:41:30.709Z,3.07
2019-05-18T13:43:59.640Z,2.93
2019-05-18T13:46:28.601Z,2.77
2019-05-18T13:48:57.999Z,3.23
2019-05-18T13:51:27.014Z,3.43
2019-05-18T13:53:56.050Z,3.40
2019-05-18T13:56:31.934Z,2.60
2019-05-18T13:59:05.696Z,2.37
2019-05-18T14:01:34.718Z,2.80
2019-05-18T14:04:03.754Z,2.97
2019-05-18T14:06:32.881Z,2.97
2019-05-18T14:09:01.905Z,3.60
2019-05-18T14:11:30.931Z,3.87
2019-05-18T14:13:59.978Z,3.17
2019-05-18T14:16:29.072Z,2.93
2019-05-18T14:18:58.106Z,2.97
2019-05-18T14:21:27.234Z,3.03
2019-05-18T14:23:56.107Z,3.17
2019-05-18T14:26:26.608Z,2.93
2019-05-18T14:29:04.157Z,2.60
2019-05-18T14:31:33.246Z,2.97
2019-05-18T14:34:02.515Z,3.60
2019-05-18T14:36:31.452Z,2.60
2019-05-18T14:39:00.412Z,2.47
2019-05-18T14:41:29.361Z,2.77
2019-05-18T14:43:58.370Z,2.80
2019-05-18T14:46:27.381Z,2.57
2019-05-18T14:48:56.301Z,2.40
2019-05-18T14:51:25.226Z,3.10
2019-05-18T14:53:54.386Z,2.10
2019-05-18T14:56:23.418Z,3.33
2019-05-18T14:58:52.359Z,2.80
2019-05-18T15:01:21.300Z,2.40
2019-05-18T15:03:50.332Z,2.47
2019-05-18T15:06:19.337Z,2.70
2019-05-18T15:08:48.570Z,2.73
2019-05-18T15:11:17.578Z,2.73
2019-05-18T15:13:46.925Z,2.30
2019-05-18T15:16:15.787Z,3.10
2019-05-18T15:18:44.967Z,2.20
2019-05-18T15:21:13.967Z,2.50
2019-05-18T15:23:43.707Z,2.57
2019-05-18T15:26:12.760Z,2.77
2019-05-18T15:28:41.777Z,2.03
2019-05-18T15:31:10.795Z,1.60
2019-05-18T15:33:39.818Z,1.60
2019-05-18T15:36:08.849Z,2.33
2019-05-18T15:38:38.143Z,1.90
2019-05-18T15:41:07.206Z,3.43
2019-05-18T15:43:36.284Z,2.30
2019-05-18T15:46:05.290Z,3.20
2019-05-18T15:48:34.424Z,3.23
2019-05-18T15:51:04.193Z,3.30
2019-05-18T15:53:33.278Z,4.20
2019-05-18T15:56:05.620Z,3.73
2019-05-18T15:58:33.507Z,4.07
2019-05-18T16:01:02.643Z,4.70
2019-05-18T16:03:31.702Z,4.37
2019-05-18T16:06:00.905Z,4.40
2019-05-18T16:08:29.986Z,4.00
2019-05-18T16:10:59.131Z,4.07
2019-05-18T16:13:28.164Z,6.03
2019-05-18T16:15:57.669Z,5.07
2019-05-18T16:18:26.989Z,3.53
2019-05-18T16:20:56.192Z,2.70
2019-05-18T16:23:25.642Z,3.17
2019-05-18T16:25:54.673Z,3.00
2019-05-18T16:28:23.761Z,3.83
2019-05-18T16:30:52.853Z,3.30
2019-05-18T16:33:22.329Z,3.13
2019-05-18T16:35:51.955Z,3.20
2019-05-18T16:38:21.083Z,3.13
2019-05-18T16:40:50.034Z,2.90
2019-05-18T16:43:21.860Z,2.80
2019-05-18T16:45:51.025Z,3.00
2019-05-18T16:48:20.117Z,3.30
2019-05-18T16:50:49.910Z,2.93
2019-05-18T16:53:19.033Z,3.07
2019-05-18T16:55:48.164Z,4.00
2019-05-18T16:58:17.204Z,3.83
2019-05-18T17:00:46.257Z,3.20
2019-05-18T17:03:15.382Z,3.10
2019-05-18T17:05:45.201Z,3.20
2019-05-18T17:08:14.307Z,3.40
2019-05-18T17:10:43.354Z,3.40
2019-05-18T17:13:12.383Z,3.30
2019-05-18T17:15:41.472Z,3.23
2019-05-18T17:18:10.440Z,3.10
2019-05-18T17:20:39.388Z,3.13
2019-05-18T17:23:08.402Z,3.27
2019-05-18T17:25:37.351Z,3.07
2019-05-18T17:28:06.370Z,3.20
2019-05-18T17:30:35.440Z,3.00
2019-05-18T17:33:04.454Z,3.00
2019-05-18T17:35:33.682Z,3.17
2019-05-18T17:38:02.679Z,3.03
2019-05-18T17:40:31.615Z,3.10
2019-05-18T17:43:00.613Z,3.60
2019-05-18T17:45:29.858Z,4.33
2019-05-18T17:47:58.888Z,3.87
2019-05-18T17:50:28.501Z,2.80
2019-05-18T17:52:57.755Z,3.10
2019-05-18T17:55:26.762Z,3.00
2019-05-18T17:57:55.683Z,3.00
2019-05-18T18:00:24.691Z,2.40
2019-05-18T18:02:53.638Z,2.23
2019-05-18T18:05:22.633Z,2.70
2019-05-18T18:07:55.304Z,3.10
2019-05-18T18:10:22.461Z,2.43
2019-05-18T18:12:51.453Z,2.40
2019-05-18T18:15:20.834Z,2.97
2019-05-18T18:17:49.863Z,2.57
2019-05-18T18:20:19.377Z,3.20
2019-05-18T18:22:48.305Z,2.63
2019-05-18T18:25:17.321Z,2.27
2019-05-18T18:27:46.505Z,2.77
2019-05-18T18:30:16.282Z,2.67
2019-05-18T18:32:45.402Z,1.70
2019-05-18T18:35:14.879Z,1.70
2019-05-18T18:37:44.326Z,1.93
2019-05-18T18:40:13.367Z,2.27
2019-05-18T18:42:42.286Z,2.10
2019-05-18T18:45:11.704Z,2.17
2019-05-18T18:47:40.716Z,1.93
2019-05-18T18:50:09.889Z,1.60
2019-05-18T18:52:39.156Z,1.27
2019-05-18T18:55:08.394Z,2.00
2019-05-18T18:57:42.077Z,1.80
2019-05-18T19:00:08.750Z,1.43
2019-05-18T19:02:38.316Z,1.83
2019-05-18T19:05:07.790Z,1.60
2019-05-18T19:07:36.885Z,1.50
2019-05-18T19:10:07.172Z,1.67
2019-05-18T19:12:36.363Z,1.47
2019-05-18T19:15:05.806Z,2.60
2019-05-18T19:17:34.927Z,2.70
2019-05-18T19:20:04.034Z,3.03
2019-05-18T19:22:33.093Z,2.20
2019-05-18T19:25:02.720Z,1.40
2019-05-18T19:27:32.173Z,2.27
2019-05-18T19:30:02.847Z,1.80
2019-05-18T19:32:31.865Z,1.90
2019-05-18T19:35:00.754Z,1.97
2019-05-18T19:37:29.631Z,1.63
2019-05-18T19:39:58.670Z,1.80
2019-05-18T19:42:28.111Z,2.07
2019-05-18T19:44:57.041Z,1.80
2019-05-18T19:47:25.970Z,2.20
2019-05-18T19:49:55.012Z,1.97
2019-05-18T19:52:24.801Z,1.80
2019-05-18T19:54:54.004Z,2.13
2019-05-18T19:57:23.016Z,1.60
2019-05-18T19:59:52.393Z,2.30
2019-05-18T20:02:21.615Z,2.10
2019-05-18T20:05:06.317Z,1.80
2019-05-18T20:07:21.295Z,2.07
2019-05-18T20:09:52.908Z,2.00
2019-05-18T20:12:21.389Z,1.60
2019-05-18T20:14:50.564Z,2.07
2019-05-18T20:17:19.493Z,1.80
2019-05-18T20:19:48.510Z,1.80
2019-05-18T20:22:17.454Z,1.53
2019-05-18T20:24:46.470Z,2.10
2019-05-18T20:27:15.475Z,1.87
2019-05-18T20:29:44.411Z,1.90
2019-05-18T20:32:13.518Z,2.30
2019-05-18T20:34:42.717Z,2.30
2019-05-18T20:37:11.726Z,1.80
2019-05-18T20:39:40.753Z,2.10
2019-05-18T20:42:10.009Z,2.10
2019-05-18T20:44:38.945Z,2.43
2019-05-18T20:47:08.507Z,2.60
2019-05-18T20:49:37.345Z,2.20
2019-05-18T20:52:06.663Z,1.80
2019-05-18T20:54:36.102Z,2.20
2019-05-18T20:57:05.014Z,2.10
2019-05-18T20:59:33.945Z,1.73
2019-05-18T21:02:02.975Z,2.30
2019-05-18T21:04:32.079Z,2.10
2019-05-18T21:07:01.097Z,2.03
2019-05-18T21:09:30.149Z,1.90
2019-05-18T21:11:59.222Z,1.50
2019-05-18T21:14:28.245Z,1.80
2019-05-18T21:16:57.342Z,2.40
2019-05-18T21:19:26.610Z,1.90
2019-05-18T21:21:55.461Z,2.27
2019-05-18T21:24:24.621Z,2.50
2019-05-18T21:26:53.626Z,2.33
2019-05-18T21:29:22.561Z,2.07
2019-05-18T21:31:51.509Z,2.43
2019-05-18T21:34:20.442Z,2.37
2019-05-18T21:36:49.293Z,2.00
2019-05-18T21:39:18.260Z,1.93
2019-05-18T21:41:47.185Z,1.70
2019-05-18T21:44:16.369Z,2.10
2019-05-18T21:46:45.462Z,1.87
2019-05-18T21:49:14.407Z,2.10
2019-05-18T21:51:43.323Z,2.20
2019-05-18T21:54:12.337Z,1.53
2019-05-18T21:56:41.335Z,2.00
2019-05-18T21:59:12.212Z,2.13
2019-05-18T22:01:41.071Z,2.40
2019-05-18T22:04:10.344Z,2.00
2019-05-18T22:06:39.618Z,1.90
2019-05-18T22:09:08.741Z,2.30
2019-05-18T22:11:37.723Z,2.00
2019-05-18T22:14:06.949Z,1.77
2019-05-18T22:16:35.970Z,2.00
2019-05-18T22:19:05.108Z,2.07
2019-05-18T22:21:34.126Z,2.20
2019-05-18T22:24:03.213Z,2.07
2019-05-18T22:26:32.082Z,1.60
2019-05-18T22:29:01.128Z,2.30
2019-05-18T22:31:30.181Z,2.20
2019-05-18T22:33:59.110Z,2.20
2019-05-18T22:36:28.114Z,2.23
2019-05-18T22:38:57.269Z,2.83
2019-05-18T22:41:26.193Z,2.20
2019-05-18T22:43:55.185Z,2.47
2019-05-18T22:46:24.210Z,2.63
2019-05-18T22:48:53.229Z,3.00
2019-05-18T22:51:22.418Z,2.60
2019-05-18T22:53:51.497Z,2.23
2019-05-18T22:56:20.498Z,2.40
2019-05-18T22:58:49.493Z,2.70
2019-05-18T23:01:18.743Z,2.90
2019-05-18T23:03:47.602Z,1.90
2019-05-18T23:06:16.540Z,2.63
2019-05-18T23:08:45.825Z,2.50
2019-05-18T23:11:14.878Z,2.57
2019-05-18T23:13:44.289Z,3.00
2019-05-18T23:16:13.231Z,2.70
2019-05-18T23:18:55.946Z,2.70
2019-05-18T23:21:12.875Z,2.40
2019-05-18T23:23:41.842Z,2.50
2019-05-18T23:26:11.622Z,2.30
2019-05-18T23:28:40.799Z,2.50
2019-05-18T23:31:09.734Z,2.00
2019-05-18T23:33:38.652Z,2.90
2019-05-18T23:36:07.570Z,2.47
2019-05-18T23:38:36.443Z,2.80
2019-05-18T23:41:05.425Z,2.57
2019-05-18T23:43:34.503Z,2.30
2019-05-18T23:46:03.514Z,2.50
2019-05-18T23:48:32.441Z,2.40
2019-05-18T23:51:01.538Z,2.13
2019-05-18T23:53:30.584Z,2.47
2019-05-18T23:55:59.582Z,2.70
2019-05-18T23:58:28.695Z,2.50
